Time;durP1;ratioP1;P1;durP2;ratioP2;P2;SDS_P1;SDS_P2;PMS_P1;PMS_P2;Temp;Humidity;BMP_temperature;BMP_pressure;BME280_temperature;BME280_humidity;BME280_pressure;Samples;Min_cycle;Max_cycle;Signal;HPM_P1;HPM_P2
2021/03/27 05:51:31;;;;;;;1.83;0.50;;;6.70;99.90;;;;;;5682127;23;20051;-83
2021/03/27 05:54:21;;;;;;;3.47;0.90;;;6.70;99.90;;;;;;4914350;29;20400;-83
2021/03/27 05:57:17;;;;;;;2.22;0.77;;;6.70;99.90;;;;;;4923160;29;20052;-83
2021/03/27 06:00:09;;;;;;;2.47;0.50;;;7.00;99.90;;;;;;4931443;29;20051;-83
2021/03/27 06:03:09;;;;;;;7.15;0.70;;;7.50;99.90;;;;;;4920825;28;20043;-83
2021/03/27 06:06:03;;;;;;;4.63;0.50;;;7.60;99.90;;;;;;4905127;29;20103;-83
2021/03/27 06:08:46;;;;;;;2.05;0.60;;;8.20;99.90;;;;;;4914450;29;20048;-83
2021/03/27 06:11:39;;;;;;;3.03;0.93;;;8.60;99.90;;;;;;4911707;29;20056;-83
2021/03/27 06:14:26;;;;;;;5.68;0.90;;;9.00;99.90;;;;;;4918323;29;20095;-83
2021/03/27 06:17:10;;;;;;;4.65;0.85;;;9.10;99.90;;;;;;4916290;29;20076;-84
2021/03/27 06:20:20;;;;;;;2.38;0.70;;;9.30;99.90;;;;;;4918184;29;20119;-83
2021/03/27 06:23:35;;;;;;;5.90;0.85;;;8.90;99.90;;;;;;4914509;29;20562;-83
2021/03/27 06:26:55;;;;;;;1.05;0.52;;;9.10;99.90;;;;;;4913418;29;20040;-83
2021/03/27 06:30:05;;;;;;;6.82;0.85;;;9.70;99.90;;;;;;4900092;29;20048;-83
2021/03/27 06:33:05;;;;;;;4.97;0.80;;;10.20;99.90;;;;;;4898253;29;20521;-83
2021/03/27 06:36:01;;;;;;;3.97;1.00;;;10.60;99.90;;;;;;4905823;29;20409;-83
2021/03/27 06:39:09;;;;;;;3.10;0.90;;;10.30;99.90;;;;;;4913981;29;20045;-82
2021/03/27 06:42:04;;;;;;;5.88;0.88;;;10.60;99.90;;;;;;4915484;29;20063;-84
2021/03/27 06:44:59;;;;;;;3.15;1.20;;;11.10;99.90;;;;;;4913694;29;20051;-82
2021/03/27 06:48:20;;;;;;;2.80;1.10;;;10.90;99.90;;;;;;4905970;29;20052;-83
2021/03/27 06:51:00;;;;;;;2.85;0.80;;;10.70;99.90;;;;;;4876841;29;20474;-83
2021/03/27 06:53:41;;;;;;;1.13;0.60;;;10.70;99.90;;;;;;4913659;29;20040;-83
2021/03/27 06:56:33;;;;;;;7.28;1.00;;;11.00;99.90;;;;;;4916559;29;20135;-83
2021/03/27 06:59:29;;;;;;;4.13;0.82;;;10.70;99.90;;;;;;4910039;29;20052;-83
2021/03/27 07:02:23;;;;;;;3.50;0.95;;;11.00;99.90;;;;;;4913059;29;20048;-83
2021/03/27 07:05:21;;;;;;;5.15;0.80;;;10.90;99.90;;;;;;4916850;29;20048;-83
2021/03/27 07:08:11;;;;;;;3.50;1.10;;;10.60;99.90;;;;;;4918505;29;20048;-83
2021/03/27 07:11:15;;;;;;;3.38;0.80;;;9.70;99.90;;;;;;4935335;29;20310;-83
2021/03/27 07:14:23;;;;;;;4.05;0.70;;;8.90;99.90;;;;;;4918031;29;20509;-83
2021/03/27 07:17:16;;;;;;;4.65;0.93;;;8.80;99.90;;;;;;4896822;29;20076;-82
2021/03/27 07:20:03;;;;;;;2.38;0.70;;;9.00;99.90;;;;;;4909463;29;20341;-83
2021/03/27 07:22:45;;;;;;;1.85;0.85;;;9.40;99.90;;;;;;4907467;29;20607;-83
2021/03/27 07:25:42;;;;;;;3.33;1.17;;;9.30;99.90;;;;;;4910200;29;20072;-83
2021/03/27 07:28:39;;;;;;;8.00;1.50;;;8.90;99.90;;;;;;4913180;29;20063;-83
2021/03/27 07:31:29;;;;;;;7.00;0.90;;;9.70;99.90;;;;;;4915361;29;20056;-83
2021/03/27 07:37:08;;;;;;;4.55;0.93;;;9.90;99.90;;;;;;4924473;29;20173;-65
2021/03/27 07:39:43;;;;;;;4.25;1.20;;;9.30;99.90;;;;;;4905198;29;20134;-66
2021/03/27 07:42:43;;;;;;;5.05;1.10;;;10.10;99.90;;;;;;4914243;29;20471;-64
2021/03/27 07:45:33;;;;;;;5.95;1.08;;;9.70;99.90;;;;;;4911666;29;20522;-65
2021/03/27 07:48:21;;;;;;;7.00;1.10;;;9.30;99.90;;;;;;4906982;29;20131;-65
2021/03/27 07:51:01;;;;;;;8.18;1.63;;;9.00;99.90;;;;;;4911360;29;20138;-64
2021/03/27 07:54:13;;;;;;;8.43;0.98;;;8.80;99.90;;;;;;4915162;29;20575;-64
2021/03/27 07:56:49;;;;;;;5.43;1.20;;;8.50;99.90;;;;;;4904578;29;20052;-65
2021/03/27 07:59:43;;;;;;;7.07;1.13;;;8.70;99.90;;;;;;4911446;29;20496;-64
2021/03/27 08:02:40;;;;;;;3.97;1.42;;;8.80;99.90;;;;;;4912938;29;20056;-65
2021/03/27 08:05:38;;;;;;;7.60;1.10;;;9.00;99.90;;;;;;4903339;29;20603;-65
2021/03/27 08:08:32;;;;;;;9.07;1.83;;;8.80;99.90;;;;;;4913963;29;20512;-64
2021/03/27 08:11:13;;;;;;;6.32;1.30;;;8.80;99.90;;;;;;4905274;29;20071;-64
2021/03/27 08:14:01;;;;;;;3.75;1.10;;;8.90;99.90;;;;;;4913564;29;20415;-65
2021/03/27 08:16:46;;;;;;;;;;;8.80;99.90;;;;;;4907267;29;20072;-64
2021/03/27 08:19:35;;;;;;;3.78;1.10;;;8.80;99.90;;;;;;4911395;29;19932;-64
2021/03/27 08:22:29;;;;;;;6.07;1.10;;;9.00;99.90;;;;;;4909296;29;20516;-64
2021/03/27 08:25:04;;;;;;;7.18;1.15;;;9.00;99.90;;;;;;4917498;29;20158;-65
2021/03/27 08:28:18;;;;;;;5.28;1.10;;;9.10;99.90;;;;;;4911553;29;20064;-65
2021/03/27 08:31:24;;;;;;;6.35;1.65;;;8.90;99.90;;;;;;4910185;29;20048;-65
2021/03/27 08:34:26;;;;;;;4.32;1.20;;;8.70;99.90;;;;;;4912755;29;20131;-65
2021/03/27 08:37:21;;;;;;;5.07;1.05;;;8.90;99.90;;;;;;4914419;29;20126;-65
2021/03/27 08:40:21;;;;;;;7.68;1.33;;;8.80;99.90;;;;;;4912407;29;20035;-65
2021/03/27 08:43:40;;;;;;;7.22;2.35;;;9.50;99.90;;;;;;4917387;29;20078;-65
2021/03/27 08:46:39;;;;;;;2.60;0.80;;;9.80;99.90;;;;;;4866264;29;20467;-65
2021/03/27 08:49:36;;;;;;;3.13;1.20;;;10.60;99.90;;;;;;4876143;29;20088;-65
2021/03/27 08:52:23;;;;;;;2.92;1.27;;;10.60;99.90;;;;;;4899024;29;20050;-66
2021/03/27 08:55:07;;;;;;;6.20;1.33;;;10.70;99.90;;;;;;4919378;29;20051;-66
2021/03/27 08:57:42;;;;;;;4.43;1.13;;;10.40;99.90;;;;;;4908844;29;20539;-65
2021/03/27 09:00:40;;;;;;;7.53;1.40;;;10.50;99.90;;;;;;4908755;29;20075;-64
2021/03/27 09:03:40;;;;;;;7.18;1.25;;;10.30;99.90;;;;;;4906162;29;20063;-64
2021/03/27 09:06:29;;;;;;;3.67;1.27;;;9.70;99.90;;;;;;4907465;29;20033;-65
2021/03/27 09:09:10;;;;;;;3.40;1.55;;;9.50;99.90;;;;;;4903887;29;20052;-62
2021/03/27 09:11:59;;;;;;;5.05;1.10;;;9.70;99.90;;;;;;4906168;29;20092;-65
2021/03/27 09:15:10;;;;;;;4.63;1.40;;;9.90;99.90;;;;;;4906159;29;20511;-64
2021/03/27 09:18:03;;;;;;;4.38;1.25;;;11.50;99.90;;;;;;4904139;29;20063;-66
2021/03/27 09:20:54;;;;;;;5.85;1.88;;;12.50;99.90;;;;;;4910975;29;20107;-65
2021/03/27 09:23:38;;;;;;;4.43;1.10;;;11.50;99.90;;;;;;4903303;29;20055;-65
2021/03/27 09:26:17;;;;;;;4.35;1.35;;;10.80;99.90;;;;;;4905826;29;20048;-65
2021/03/27 09:29:16;;;;;;;8.10;1.83;;;10.70;99.90;;;;;;4910515;29;20048;-65
2021/03/27 09:32:05;;;;;;;2.25;0.90;;;10.70;99.90;;;;;;4890141;29;20060;-64
2021/03/27 09:34:55;;;;;;;7.45;0.90;;;10.20;99.90;;;;;;4899620;29;20155;-64
2021/03/27 09:37:38;;;;;;;6.05;1.42;;;10.80;99.90;;;;;;4907838;29;20052;-64
2021/03/27 09:40:18;;;;;;;8.30;1.55;;;11.10;99.90;;;;;;4908512;29;20135;-64
2021/03/27 09:42:58;;;;;;;2.28;0.90;;;10.50;99.90;;;;;;4894732;29;20139;-64
2021/03/27 09:45:32;;;;;;;3.92;1.20;;;9.40;99.90;;;;;;4909591;29;20104;-63
2021/03/27 09:48:22;;;;;;;3.92;1.30;;;8.10;99.90;;;;;;4910007;29;20059;-64
2021/03/27 09:50:53;;;;;;;5.15;1.60;;;6.90;99.90;;;;;;4904549;29;20076;-63
2021/03/27 09:53:49;;;;;;;2.58;1.15;;;6.40;99.90;;;;;;4910018;29;20048;-63
2021/03/27 09:56:33;;;;;;;1.98;0.90;;;6.50;99.90;;;;;;4907874;29;20037;-62
2021/03/27 09:59:19;;;;;;;2.90;0.90;;;6.60;99.90;;;;;;4904912;29;20115;-65
2021/03/27 10:01:52;;;;;;;5.97;1.15;;;6.90;99.90;;;;;;4911234;29;20485;-65
2021/03/27 10:04:52;;;;;;;4.05;1.10;;;7.20;99.90;;;;;;4906043;29;20032;-64
2021/03/27 10:07:38;;;;;;;2.20;1.02;;;7.10;99.90;;;;;;4906794;29;20175;-64
2021/03/27 10:10:35;;;;;;;6.65;0.75;;;7.40;99.90;;;;;;4903572;29;20425;-65
2021/03/27 10:13:09;;;;;;;1.60;0.93;;;8.60;99.90;;;;;;4879011;29;20103;-65
2021/03/27 10:15:42;;;;;;;2.92;0.90;;;10.00;99.90;;;;;;4907692;29;20056;-66
2021/03/27 10:18:17;;;;;;;4.32;1.55;;;11.50;99.90;;;;;;4908160;29;20082;-66
2021/03/27 10:20:50;;;;;;;4.38;1.15;;;11.90;99.90;;;;;;4905219;29;20048;-66
2021/03/27 10:23:33;;;;;;;5.70;1.52;;;12.50;99.90;;;;;;4907267;29;20056;-66
2021/03/27 10:26:29;;;;;;;4.57;1.35;;;12.90;99.90;;;;;;4908334;29;20048;-65
2021/03/27 10:29:06;;;;;;;5.50;1.77;;;12.10;99.90;;;;;;4914344;29;20052;-64
2021/03/27 10:31:38;;;;;;;;;;;11.20;99.90;;;;;;4919093;29;20048;-65
2021/03/27 10:34:31;;;;;;;3.25;0.90;;;8.60;99.90;;;;;;4925222;29;19923;-66
2021/03/27 10:37:03;;;;;;;10.57;3.00;;;7.20;99.90;;;;;;4912282;29;20032;-66
2021/03/27 10:39:57;;;;;;;41.47;10.77;;;6.40;99.90;;;;;;4914595;29;20051;-66
2021/03/27 10:42:53;;;;;;;7.78;2.17;;;6.40;99.90;;;;;;4913344;29;20055;-66
2021/03/27 10:45:31;;;;;;;1.95;0.75;;;6.00;99.90;;;;;;4909342;29;20044;-65
2021/03/27 10:48:26;;;;;;;4.18;0.80;;;5.90;99.90;;;;;;4911718;29;20171;-65
2021/03/27 10:51:12;;;;;;;1.63;0.93;;;5.50;99.90;;;;;;4916527;29;20047;-66
2021/03/27 10:53:55;;;;;;;2.28;1.20;;;5.30;99.90;;;;;;4917884;29;20058;-65
2021/03/27 10:56:45;;;;;;;2.20;0.95;;;5.10;99.90;;;;;;4912293;29;20416;-67
2021/03/27 10:59:26;;;;;;;3.88;1.80;;;4.90;99.90;;;;;;4911056;29;20046;-66
2021/03/27 11:02:36;;;;;;;4.63;0.80;;;4.90;99.90;;;;;;4911344;29;20044;-66
2021/03/27 11:05:56;;;;;;;4.30;1.30;;;5.10;99.90;;;;;;4913496;29;20048;-67
2021/03/27 11:09:09;;;;;;;3.50;2.28;;;5.30;99.90;;;;;;4851783;29;20076;-66
2021/03/27 11:12:11;;;;;;;4.55;2.28;;;5.70;99.90;;;;;;4901835;29;20080;-64
2021/03/27 11:15:09;;;;;;;1.67;0.70;;;6.50;99.90;;;;;;4913040;29;20138;-66
2021/03/27 11:18:11;;;;;;;2.10;0.80;;;7.00;99.90;;;;;;4895791;29;20135;-64
2021/03/27 11:21:07;;;;;;;1.52;0.60;;;7.40;99.90;;;;;;4912838;29;20165;-64
2021/03/27 11:24:12;;;;;;;0.80;0.60;;;7.50;99.90;;;;;;4912203;29;20048;-64
2021/03/27 11:27:09;;;;;;;3.25;1.55;;;7.60;99.90;;;;;;4855091;29;20140;-64
2021/03/27 11:29:39;;;;;;;0.60;0.60;;;8.30;99.90;;;;;;4911791;29;20052;-65
2021/03/27 11:32:15;;;;;;;2.97;0.80;;;8.40;99.90;;;;;;4913993;29;20173;-64
2021/03/27 11:34:52;;;;;;;1.85;0.60;;;8.50;99.90;;;;;;4911549;29;20257;-64
2021/03/27 11:37:44;;;;;;;1.85;0.82;;;8.30;99.90;;;;;;4914058;29;20055;-65
2021/03/27 11:40:29;;;;;;;1.80;0.63;;;8.50;99.90;;;;;;4911977;29;20072;-63
2021/03/27 11:43:21;;;;;;;2.72;0.80;;;8.50;99.90;;;;;;4913720;29;20077;-64
2021/03/27 11:45:51;;;;;;;2.55;1.60;;;8.30;99.90;;;;;;4893078;29;20119;-63
2021/03/27 11:48:22;;;;;;;3.00;0.93;;;8.30;99.90;;;;;;4908751;29;20044;-64
2021/03/27 11:51:08;;;;;;;9.38;1.30;;;8.20;99.90;;;;;;4911126;29;20100;-64
2021/03/27 11:53:44;;;;;;;4.20;2.30;;;8.20;99.90;;;;;;4916819;29;20083;-62
2021/03/27 11:56:20;;;;;;;2.25;1.45;;;8.30;99.90;;;;;;4910950;29;20051;-63
2021/03/27 12:02:17;;;;;;;21.65;5.00;;;8.50;99.90;;;;;;4894496;29;20041;-64
2021/03/27 12:05:02;;;;;;;11.27;2.58;;;8.50;99.90;;;;;;4896915;29;20047;-63
2021/03/27 12:07:38;;;;;;;28.17;4.78;;;8.50;99.90;;;;;;4913136;29;20044;-64
2021/03/27 12:10:25;;;;;;;68.20;7.70;;;8.60;99.90;;;;;;4910781;29;20044;-65
2021/03/27 12:12:58;;;;;;;7.70;2.38;;;8.80;99.90;;;;;;4922867;29;20055;-64
2021/03/27 12:15:31;;;;;;;9.43;2.47;;;8.80;99.90;;;;;;4911122;29;20048;-63
2021/03/27 12:18:12;;;;;;;6.30;2.22;;;8.80;99.90;;;;;;4914309;29;20051;-63
2021/03/27 12:20:45;;;;;;;6.25;1.58;;;8.80;99.90;;;;;;4918590;29;20560;-64
2021/03/27 12:23:26;;;;;;;11.00;1.70;;;8.50;99.90;;;;;;4932060;29;20043;-64
2021/03/27 12:26:00;;;;;;;5.35;1.85;;;8.30;99.90;;;;;;4922878;29;20473;-63
2021/03/27 12:28:37;;;;;;;6.25;2.05;;;8.00;99.90;;;;;;4913124;29;20181;-64
2021/03/27 12:31:17;;;;;;;9.85;1.42;;;8.00;99.90;;;;;;4910838;29;20564;-64
2021/03/27 12:33:56;;;;;;;8.40;1.20;;;8.10;99.90;;;;;;4913504;29;20051;-63
2021/03/27 12:36:33;;;;;;;6.85;1.60;;;8.40;99.90;;;;;;4910546;29;20048;-65
2021/03/27 12:39:31;;;;;;;6.70;1.80;;;9.60;99.90;;;;;;4912963;29;20465;-65
2021/03/27 12:42:07;;;;;;;2.25;1.20;;;10.70;99.90;;;;;;4908094;29;20056;-65
2021/03/27 12:44:36;;;;;;;7.13;1.58;;;11.10;99.90;;;;;;4911525;29;20060;-64
2021/03/27 12:47:20;;;;;;;5.60;1.40;;;11.40;99.90;;;;;;4910353;29;20440;-64
2021/03/27 12:49:54;;;;;;;4.32;1.20;;;11.70;99.90;;;;;;4912996;29;20696;-64
2021/03/27 12:52:36;;;;;;;6.95;1.58;;;11.80;99.90;;;;;;4910419;29;20153;-63
2021/03/27 12:55:15;;;;;;;6.18;2.10;;;11.50;99.90;;;;;;4928110;29;20048;-65
2021/03/27 12:57:55;;;;;;;5.18;1.40;;;10.90;99.90;;;;;;4909412;29;20044;-65
2021/03/27 13:00:47;;;;;;;4.30;1.20;;;10.50;99.90;;;;;;4912868;29;20048;-65
2021/03/27 13:03:36;;;;;;;5.75;1.50;;;10.40;99.90;;;;;;4910563;29;20140;-64
2021/03/27 13:06:22;;;;;;;5.65;1.48;;;10.20;99.90;;;;;;4912394;29;20468;-65
2021/03/27 13:09:21;;;;;;;6.65;1.52;;;10.20;99.90;;;;;;4910454;29;20042;-64
2021/03/27 13:11:56;;;;;;;4.18;1.15;;;10.00;99.90;;;;;;4915123;29;20047;-64
2021/03/27 13:15:07;;;;;;;8.25;1.48;;;9.90;99.90;;;;;;4910699;29;20501;-65
2021/03/27 13:17:51;;;;;;;10.25;2.03;;;9.60;99.90;;;;;;4909821;29;20084;-64
2021/03/27 13:20:26;;;;;;;6.95;1.60;;;8.70;99.90;;;;;;4909484;29;20064;-65
2021/03/27 13:22:59;;;;;;;10.90;1.67;;;8.00;99.90;;;;;;4912759;29;20044;-64
2021/03/27 13:25:30;;;;;;;10.82;2.30;;;7.40;99.90;;;;;;4916255;29;20056;-64
2021/03/27 13:28:02;;;;;;;4.85;2.35;;;7.00;99.90;;;;;;4913908;29;20054;-65
2021/03/27 13:30:32;;;;;;;6.72;2.72;;;6.60;99.90;;;;;;4915960;29;20126;-66
2021/03/27 13:33:13;;;;;;;3.70;1.73;;;6.30;99.90;;;;;;4911993;29;20062;-66
2021/03/27 13:36:02;;;;;;;6.00;1.60;;;6.10;99.90;;;;;;4915930;29;20135;-66
2021/03/27 13:38:36;;;;;;;5.95;1.42;;;6.70;99.90;;;;;;4913896;29;20059;-65
2021/03/27 13:41:14;;;;;;;4.90;1.77;;;7.10;99.90;;;;;;4916047;29;20067;-65
2021/03/27 13:43:50;;;;;;;4.35;2.00;;;7.10;99.90;;;;;;4913376;29;20043;-65
2021/03/27 13:46:23;;;;;;;5.10;2.60;;;7.50;99.90;;;;;;4915634;29;20123;-65
2021/03/27 13:48:55;;;;;;;4.47;2.03;;;8.00;99.90;;;;;;4913537;29;20056;-64
2021/03/27 13:51:25;;;;;;;5.93;1.40;;;9.10;99.90;;;;;;4914025;29;20207;-64
2021/03/27 13:54:04;;;;;;;7.97;1.23;;;9.80;99.90;;;;;;4916585;29;20048;-63
2021/03/27 13:56:46;;;;;;;8.55;1.63;;;10.10;99.90;;;;;;4915480;29;20047;-65
2021/03/27 13:59:42;;;;;;;5.95;1.65;;;10.20;99.90;;;;;;4912770;29;20051;-64
2021/03/27 14:02:41;;;;;;;6.55;2.28;;;10.50;99.90;;;;;;4915668;29;20697;-64
2021/03/27 14:05:30;;;;;;;7.13;1.25;;;9.80;99.90;;;;;;4913219;29;20056;-63
2021/03/27 14:08:07;;;;;;;6.15;1.25;;;9.50;99.90;;;;;;4915492;29;20051;-63
2021/03/27 14:10:38;;;;;;;5.13;1.13;;;9.30;99.90;;;;;;4913222;29;20087;-65
2021/03/27 14:13:13;;;;;;;2.95;0.82;;;9.20;99.90;;;;;;4928205;29;20575;-65
2021/03/27 14:15:44;;;;;;;4.30;1.60;;;9.50;99.90;;;;;;4923593;29;20523;-65
2021/03/27 14:18:27;;;;;;;3.83;1.35;;;10.00;99.90;;;;;;4915382;29;20044;-64
2021/03/27 14:21:04;;;;;;;3.45;0.98;;;9.90;99.90;;;;;;4913048;29;20079;-63
2021/03/27 14:23:37;;;;;;;3.28;1.40;;;9.90;99.90;;;;;;4915477;29;20424;-64
2021/03/27 14:26:20;;;;;;;5.30;0.90;;;10.20;99.90;;;;;;4913032;29;20044;-65
2021/03/27 14:28:54;;;;;;;2.95;1.02;;;10.50;99.90;;;;;;4915014;29;20056;-63
2021/03/27 14:31:45;;;;;;;4.57;1.20;;;10.80;99.90;;;;;;4910956;29;20056;-65
2021/03/27 14:34:25;;;;;;;3.78;1.10;;;10.40;99.90;;;;;;4914076;29;20056;-63
2021/03/27 14:37:16;;;;;;;2.00;0.90;;;10.80;99.90;;;;;;4912509;29;20052;-64
2021/03/27 14:39:53;;;;;;;2.95;0.70;;;11.00;99.90;;;;;;4914539;29;20193;-63
2021/03/27 14:42:36;;;;;;;1.58;0.73;;;11.20;99.90;;;;;;4911033;29;20112;-64
2021/03/27 14:45:13;;;;;;;2.78;0.80;;;11.00;99.90;;;;;;4914514;29;20075;-63
2021/03/27 14:48:00;;;;;;;1.13;0.55;;;11.20;99.90;;;;;;4912386;29;20046;-65
2021/03/27 14:50:41;;;;;;;4.72;0.60;;;11.30;99.90;;;;;;4914545;29;20542;-64
2021/03/27 14:53:23;;;;;;;1.88;1.08;;;11.40;99.90;;;;;;4912566;29;20143;-64
2021/03/27 14:55:56;;;;;;;2.72;1.00;;;11.40;99.90;;;;;;4927775;29;20135;-64
2021/03/27 14:58:39;;;;;;;4.57;2.05;;;11.60;99.90;;;;;;4911011;29;20075;-63
2021/03/27 15:01:10;;;;;;;3.92;1.67;;;11.60;99.90;;;;;;4898912;29;20051;-64
2021/03/27 15:03:51;;;;;;;4.45;1.83;;;11.50;99.90;;;;;;4912186;29;20098;-65
2021/03/27 15:06:32;;;;;;;3.05;1.05;;;11.70;99.90;;;;;;4913248;29;20060;-63
2021/03/27 15:09:04;;;;;;;3.60;1.05;;;11.50;99.90;;;;;;4912007;29;20055;-64
2021/03/27 15:11:41;;;;;;;2.17;1.15;;;11.30;99.90;;;;;;4914505;29;20516;-64
2021/03/27 15:14:19;;;;;;;2.10;0.80;;;10.60;99.90;;;;;;4913320;29;20071;-64
2021/03/27 15:16:53;;;;;;;3.92;0.70;;;10.50;99.90;;;;;;4914403;29;20055;-64
2021/03/27 15:19:46;;;;;;;5.05;1.02;;;10.70;99.90;;;;;;4910553;29;20047;-63
2021/03/27 15:22:27;;;;;;;2.03;0.80;;;10.90;99.90;;;;;;4906379;29;20472;-65
2021/03/27 15:27:55;;;;;;;1.25;0.95;;;10.70;99.90;;;;;;4899672;29;20068;-64
2021/03/27 15:30:29;;;;;;;5.70;1.30;;;10.10;99.90;;;;;;4911823;29;20488;-64
2021/03/27 15:33:06;;;;;;;4.30;1.67;;;9.90;99.90;;;;;;4910245;29;20551;-64
2021/03/27 15:35:48;;;;;;;3.42;1.70;;;9.80;99.90;;;;;;4927418;29;20052;-65
2021/03/27 15:38:31;;;;;;;4.55;1.52;;;9.50;99.90;;;;;;4911491;29;20095;-65
2021/03/27 15:41:03;;;;;;;3.88;1.73;;;9.40;99.90;;;;;;4895092;29;20490;-64
2021/03/27 15:43:42;;;;;;;3.25;1.10;;;9.40;99.90;;;;;;4898462;29;20140;-65
2021/03/27 15:46:15;;;;;;;3.47;1.15;;;9.30;99.90;;;;;;4913008;29;20131;-66
2021/03/27 15:48:55;;;;;;;5.22;1.45;;;9.40;99.90;;;;;;4911692;29;20055;-66
2021/03/27 15:51:28;;;;;;;5.38;1.50;;;9.20;99.90;;;;;;4913662;29;20139;-65
2021/03/27 15:54:08;;;;;;;9.52;1.63;;;9.20;99.90;;;;;;4915786;29;20079;-65
2021/03/27 15:56:42;;;;;;;4.03;2.10;;;9.10;99.90;;;;;;4913039;29;20095;-65
2021/03/27 15:59:49;;;;;;;4.28;1.00;;;8.90;99.90;;;;;;4909496;29;20070;-65
2021/03/27 16:02:23;;;;;;;6.32;1.27;;;8.60;99.90;;;;;;4913702;29;20051;-65
2021/03/27 16:04:54;;;;;;;3.70;1.80;;;8.50;99.90;;;;;;4911258;29;20048;-65
2021/03/27 16:07:25;;;;;;;9.63;5.43;;;8.50;99.90;;;;;;4913415;29;20497;-66
2021/03/27 16:10:00;;;;;;;8.35;3.10;;;8.30;99.90;;;;;;4911114;29;20044;-64
2021/03/27 16:12:39;;;;;;;9.85;5.00;;;8.20;99.90;;;;;;4921181;29;20522;-64
2021/03/27 16:15:32;;;;;;;18.60;9.23;;;8.30;99.90;;;;;;4925662;29;20138;-65
2021/03/27 16:18:45;;;;;;;31.58;15.70;;;8.40;99.90;;;;;;4910607;29;20056;-64
2021/03/27 16:21:35;;;;;;;20.65;10.88;;;8.40;99.90;;;;;;4910601;29;20206;-64
2021/03/27 16:24:11;;;;;;;18.70;10.63;;;8.20;99.90;;;;;;4911656;29;20516;-64
2021/03/27 16:26:44;;;;;;;8.73;4.18;;;8.10;99.90;;;;;;4910981;29;20160;-64
2021/03/27 16:29:19;;;;;;;6.40;3.50;;;7.90;99.90;;;;;;4912862;29;20044;-64
2021/03/27 16:32:05;;;;;;;7.15;2.33;;;7.90;99.90;;;;;;4910589;29;20585;-65
2021/03/27 16:35:00;;;;;;;10.95;5.55;;;8.00;99.90;;;;;;4912499;29;20443;-64
2021/03/27 16:37:38;;;;;;;5.40;2.28;;;8.10;99.90;;;;;;4907708;29;20555;-64
2021/03/27 16:40:27;;;;;;;3.20;1.33;;;8.20;99.90;;;;;;4912923;29;20126;-63
2021/03/27 16:43:09;;;;;;;3.95;1.67;;;8.40;99.90;;;;;;4910609;29;20059;-64
2021/03/27 16:46:07;;;;;;;6.25;2.20;;;8.40;99.90;;;;;;4911108;29;20524;-64
2021/03/27 16:49:09;;;;;;;3.22;1.73;;;8.30;99.90;;;;;;4893918;29;20446;-64
2021/03/27 16:52:11;;;;;;;3.95;1.70;;;8.20;99.90;;;;;;4895575;29;20036;-64
2021/03/27 16:54:48;;;;;;;2.47;1.17;;;8.20;99.90;;;;;;4902617;29;20055;-64
2021/03/27 16:57:47;;;;;;;2.67;1.40;;;8.20;99.90;;;;;;4914090;29;20080;-61
2021/03/27 17:00:18;;;;;;;5.38;1.98;;;8.10;99.90;;;;;;4912821;29;20040;-64
2021/03/27 17:02:54;;;;;;;4.82;1.58;;;8.10;99.90;;;;;;4908873;29;20516;-64
2021/03/27 17:05:32;;;;;;;4.90;1.80;;;8.10;99.90;;;;;;4912305;29;20058;-63
2021/03/27 17:08:05;;;;;;;8.25;2.03;;;8.00;99.90;;;;;;4910543;29;20516;-62
2021/03/27 17:10:38;;;;;;;4.07;1.33;;;8.00;99.90;;;;;;4912768;29;20155;-64
2021/03/27 17:13:27;;;;;;;4.45;1.40;;;7.90;99.90;;;;;;4917807;29;20452;-65
2021/03/27 17:16:20;;;;;;;6.07;1.55;;;7.90;99.90;;;;;;4913054;29;20446;-65
2021/03/27 17:18:57;;;;;;;4.05;1.33;;;7.80;99.90;;;;;;4910646;29;20138;-63
2021/03/27 17:21:31;;;;;;;6.35;1.63;;;7.80;99.90;;;;;;4912763;29;20052;-62
2021/03/27 17:24:05;;;;;;;5.28;1.63;;;7.70;99.90;;;;;;4910178;29;20131;-64
2021/03/27 17:26:59;;;;;;;4.00;1.50;;;7.60;99.90;;;;;;4912193;29;20123;-63
2021/03/27 17:29:40;;;;;;;5.68;1.27;;;7.60;99.90;;;;;;4910019;29;20036;-64
2021/03/27 17:32:36;;;;;;;11.73;2.10;;;7.50;99.90;;;;;;4912220;29;20060;-62
2021/03/27 17:35:10;;;;;;;24.02;12.80;;;7.50;99.90;;;;;;4909884;29;20055;-63
2021/03/27 17:37:45;;;;;;;13.52;7.28;;;7.50;99.90;;;;;;4912374;29;20119;-63
2021/03/27 17:40:36;;;;;;;9.57;5.90;;;7.40;99.90;;;;;;4910273;29;20474;-64
2021/03/27 17:43:11;;;;;;;7.22;2.83;;;7.30;99.90;;;;;;4912092;29;20052;-64
2021/03/27 17:45:46;;;;;;;10.13;3.58;;;7.30;99.90;;;;;;4910087;29;20055;-65
2021/03/27 17:48:24;;;;;;;6.55;2.15;;;7.20;99.90;;;;;;4912430;29;20521;-64
2021/03/27 17:50:59;;;;;;;5.32;2.15;;;7.10;99.90;;;;;;4911306;29;20473;-64
2021/03/27 17:53:45;;;;;;;5.80;2.10;;;7.10;99.90;;;;;;4918603;29;20372;-64
2021/03/27 17:56:18;;;;;;;6.38;1.85;;;7.10;99.90;;;;;;4911689;29;20119;-65
2021/03/27 17:58:49;;;;;;;10.77;2.15;;;7.10;99.90;;;;;;4911529;29;20086;-65
2021/03/27 18:01:22;;;;;;;6.88;2.70;;;7.10;99.90;;;;;;4909489;29;20580;-64
2021/03/27 18:04:01;;;;;;;7.65;3.55;;;7.10;99.90;;;;;;4912360;29;20448;-65
2021/03/27 18:06:37;;;;;;;4.72;2.40;;;7.00;99.90;;;;;;4909420;29;20071;-64
2021/03/27 18:09:07;;;;;;;8.02;2.50;;;6.90;99.90;;;;;;4914070;29;20044;-65
2021/03/27 18:11:49;;;;;;;4.60;2.38;;;6.80;99.90;;;;;;4914034;29;20080;-64
2021/03/27 18:14:31;;;;;;;3.50;1.95;;;6.70;99.90;;;;;;4934972;29;20067;-65
2021/03/27 18:17:10;;;;;;;3.90;1.85;;;6.60;99.90;;;;;;4913869;29;20044;-65
2021/03/27 18:19:42;;;;;;;9.23;2.95;;;6.60;99.90;;;;;;4896940;29;20416;-64
2021/03/27 18:22:22;;;;;;;8.70;2.65;;;6.60;99.90;;;;;;4913335;29;20044;-64
2021/03/27 18:25:01;;;;;;;11.70;2.40;;;6.50;99.90;;;;;;4914186;29;20067;-64
2021/03/27 18:27:32;;;;;;;8.73;3.05;;;6.50;99.90;;;;;;4913084;29;20587;-63
2021/03/27 18:30:03;;;;;;;5.32;1.90;;;6.50;99.90;;;;;;4915290;29;20286;-65
2021/03/27 18:32:35;;;;;;;10.48;2.08;;;6.40;99.90;;;;;;4912724;29;20504;-64
2021/03/27 18:35:13;;;;;;;6.90;1.50;;;6.40;99.90;;;;;;4915158;29;20114;-65
2021/03/27 18:37:42;;;;;;;4.65;1.65;;;6.40;99.90;;;;;;4913436;29;20528;-64
2021/03/27 18:40:22;;;;;;;3.80;1.60;;;6.40;99.90;;;;;;4915438;29;20140;-65
2021/03/27 18:42:53;;;;;;;6.05;1.75;;;6.40;99.90;;;;;;4912568;29;20044;-64
2021/03/27 18:45:39;;;;;;;10.27;2.22;;;6.40;99.90;;;;;;4915386;29;20127;-64
2021/03/27 18:48:15;;;;;;;3.88;1.58;;;6.30;99.90;;;;;;4915393;29;20500;-64
2021/03/27 18:50:47;;;;;;;5.57;1.88;;;6.30;99.90;;;;;;4914654;29;20048;-64
2021/03/27 18:53:26;;;;;;;7.72;2.40;;;6.20;99.90;;;;;;4913778;29;20048;-63
2021/03/27 18:56:05;;;;;;;12.88;3.70;;;6.20;99.90;;;;;;4929190;29;20091;-63
2021/03/27 18:58:48;;;;;;;18.40;4.78;;;6.20;99.90;;;;;;4912010;29;20508;-64
2021/03/27 19:01:22;;;;;;;13.13;4.45;;;6.20;99.90;;;;;;4913635;29;20143;-66
2021/03/27 19:03:55;;;;;;;20.45;9.55;;;6.20;99.90;;;;;;4912359;29;20046;-63
2021/03/27 19:06:23;;;;;;;8.32;2.85;;;6.20;99.90;;;;;;4914600;29;20103;-66
2021/03/27 19:09:02;;;;;;;15.60;5.85;;;6.20;99.90;;;;;;4912351;29;20050;-63
2021/03/27 19:11:32;;;;;;;18.77;6.93;;;6.10;99.90;;;;;;4914526;29;20074;-63
2021/03/27 19:14:04;;;;;;;17.77;5.03;;;6.10;99.90;;;;;;4913947;29;20126;-66
2021/03/27 19:16:35;;;;;;;10.20;4.95;;;6.10;99.90;;;;;;4914748;29;20036;-66
2021/03/27 19:19:11;;;;;;;8.70;4.75;;;6.00;99.90;;;;;;4912429;29;20067;-65
2021/03/27 19:21:46;;;;;;;13.98;4.97;;;6.00;99.90;;;;;;4914346;29;20048;-64
2021/03/27 19:24:18;;;;;;;20.00;10.73;;;5.90;99.90;;;;;;4912217;29;20044;-63
2021/03/27 19:26:52;;;;;;;22.45;9.95;;;5.90;99.90;;;;;;4913968;29;20127;-64
2021/03/27 19:29:23;;;;;;;18.80;10.20;;;5.80;99.90;;;;;;4910443;29;20056;-62
2021/03/27 19:32:02;;;;;;;19.48;10.95;;;5.80;99.90;;;;;;4913972;29;20521;-64
2021/03/27 19:34:33;;;;;;;20.85;10.23;;;5.80;99.90;;;;;;4912091;29;20138;-64
2021/03/27 19:37:09;;;;;;;14.07;6.80;;;5.70;99.90;;;;;;4914131;29;20111;-64
2021/03/27 19:39:46;;;;;;;13.50;6.50;;;5.70;99.90;;;;;;4911964;29;20044;-65
2021/03/27 19:42:22;;;;;;;8.30;5.82;;;5.70;99.90;;;;;;4913583;29;20039;-66
2021/03/27 19:45:02;;;;;;;8.82;4.65;;;5.60;99.90;;;;;;4911528;29;20044;-65
2021/03/27 19:47:33;;;;;;;8.88;4.50;;;5.60;99.90;;;;;;4913770;29;20044;-66
2021/03/27 19:50:12;;;;;;;10.82;4.40;;;5.50;99.90;;;;;;4911983;29;20044;-65
2021/03/27 19:52:44;;;;;;;12.35;4.43;;;5.50;99.90;;;;;;4913875;29;20146;-66
2021/03/27 19:55:21;;;;;;;11.63;4.68;;;5.50;99.90;;;;;;4914954;29;20052;-65
2021/03/27 19:58:11;;;;;;;14.70;5.35;;;5.40;99.90;;;;;;4913230;29;20055;-65
2021/03/27 20:00:46;;;;;;;19.55;6.57;;;5.50;99.90;;;;;;4911659;29;20055;-66
2021/03/27 20:03:17;;;;;;;14.77;5.60;;;5.40;99.90;;;;;;4913734;29;20048;-64
2021/03/27 20:05:53;;;;;;;18.60;7.40;;;5.40;99.90;;;;;;4911469;29;20130;-65
2021/03/27 20:08:24;;;;;;;17.40;8.32;;;5.40;99.90;;;;;;4914341;29;20048;-64
2021/03/27 20:10:53;;;;;;;18.92;7.90;;;5.30;99.90;;;;;;4911286;29;20123;-64
2021/03/27 20:13:26;;;;;;;15.43;7.70;;;5.30;99.90;;;;;;4928922;29;20099;-64
2021/03/27 20:16:01;;;;;;;15.13;7.72;;;5.30;99.90;;;;;;4919670;29;20048;-64
2021/03/27 20:18:34;;;;;;;18.73;8.55;;;5.20;99.90;;;;;;4913526;29;20084;-64